CheckWX is a tool to help pilots better visualize weather data.  It is not intended as a substitute for an official pre-flight weather briefing.

23:36:59 UTC

KBOS METAR
General Edward Lawrence Logan International Airport
Boston, Massachusetts, USA
Current

43 mins ago

KBOS 182254Z 31009KT 10SM FEW045 13/02 A2983 RMK AO2 SLP100 T01280022
Observed
Oct-18 @ 22:54 UTC
Wind
  • 310° at 9 KTS
Visibility
10 SM
Flight Rules
VFR
Cloud Levels
  • Few at 4,500' AGL
Temperature
13°C / 55°F
Dewpoint
C / 36°F
Humidity
47%
Altimeter
29.83" Hg
Pressure
1010.12 hPa
Previous

2 hours ago

KBOS 182154Z 32011KT 10SM FEW045 14/02 A2980 RMK AO2 SLP090 T01390022
Observed
Oct-18 @ 21:54 UTC
Wind
  • 320° at 11 KTS
Visibility
10 SM
Flight Rules
VFR
Cloud Levels
  • Few at 4,500' AGL
Temperature
14°C / 57°F
Dewpoint
C / 36°F
Humidity
44%
Altimeter
29.8" Hg
Pressure
1009.12 hPa
Previous

3 hours ago

KBOS 182054Z 29016G21KT 10SM SCT047 SCT250 16/02 A2977 RMK AO2 SLP082 T01560022 53020
Observed
Oct-18 @ 20:54 UTC
Wind
  • 290° at 16 KTS
  • Gusting to 21 KTS
Visibility
10 SM
Flight Rules
VFR
Cloud Levels
  • Scattered at 4,700' AGL
  • Scattered at 25,000' AGL
Temperature
16°C / 61°F
Dewpoint
C / 36°F
Humidity
39%
Altimeter
29.77" Hg
Pressure
1008.12 hPa